This is the latest recevied weather packets stored in our database for station/object KK7DS. If no packets are shown the sender has not sent any weather packets the latest 10 day(s).
| Time | Temp. | Humidity | Pressure | Rain* | Wind** | Luminosity | Snow |
|---|---|---|---|---|---|---|---|
| 1777759755 | 18.89° C | 68% | 1013.6 hPa | 0 mm | - | - | - |
| 1777758630 | 18.89° C | 68% | 1013.7 hPa | 0 mm | - | - | - |
| 1777758075 | 17.78° C | 70% | 1013.8 hPa | 0 mm | - | - | - |
| 1777757485 | 18.33° C | 69% | 1014 hPa | 0 mm | - | - | - |
| 1777756930 | 17.78° C | 70% | 1014.1 hPa | 0 mm | - | - | - |
| 1777756443 | 17.78° C | 70% | 1014.2 hPa | 0 mm | - | - | - |
| 1777755869 | 17.78° C | 71% | 1014.3 hPa | 0 mm | - | - | - |
| 1777755322 | 17.78° C | 70% | 1014.6 hPa | 0 mm | - | - | - |
| 1777754725 | 17.78° C | 71% | 1014.9 hPa | 0 mm | - | - | - |
| 1777754188 | 16.67° C | 75% | 1014.9 hPa | 0 mm | - | - | - |
| 1777753589 | 15.56° C | 77% | 1014.9 hPa | 0 mm | - | - | - |
| 1777753050 | 15° C | 77% | 1015.1 hPa | 0 mm | - | - | - |
| 1777752032 | 15° C | 76% | 1015.1 hPa | 0 mm | - | - | - |
| 1777751515 | 15° C | 78% | 1015.1 hPa | 0 mm | - | - | - |
| 1777750995 | 15° C | 78% | 1015.2 hPa | 0 mm | - | - | - |
| 1777750506 | 14.44° C | 79% | 1015.2 hPa | 0 mm | - | - | - |
| 1777749949 | 14.44° C | 80% | 1015.4 hPa | 0 mm | - | - | - |
| 1777749454 | 13.33° C | 81% | 1015.5 hPa | 0 mm | - | - | - |
| 1777749400 | 13.33° C | 81% | 1015.5 hPa | 0 mm | - | - | - |
| 1777748885 | 13.89° C | 81% | 1015.8 hPa | 0 mm | - | - | - |
| 1777747849 | 12.78° C | 83% | 1015.9 hPa | 0 mm | - | - | - |
| 1777747348 | 12.78° C | 83% | 1015.6 hPa | 0 mm | - | - | - |
| 1777746769 | 12.22° C | 86% | 1015.6 hPa | 0 mm | - | - | - |
| 1777746194 | 11.67° C | 87% | 1015.9 hPa | 0 mm | - | - | - |
| 1777745615 | 11.67° C | 87% | 1016 hPa | 0 mm | - | - | - |
* Rain latest hour (hover to see other rain measurements)
** Current wind speed in m/s (hover to see current wind gust speed)